Temp: 4.6°C   Baro: 1017.2mb
  Wind: 0.0mph   Dir: NNW (342°)
  Rain: 0.0mm (0.0mm/hr)
  Solar: 0W/m2  Hum: 83%

Historic data

Bath Spa Weather Station Historical Data
Daily Summary for January 23, 2021 Units:  Metric    English   Both
Daily Weekly Monthly Yearly Custom
  High: Low: Average:
Temperature: 7.6 °C -0.8 °C 3.8 °C
Dew Point: 6.6 °C -1.3 °C 3.1 °C
Humidity: 95% 89% 92%
Wind Speed: 0.5km/h 0km/h 0km/h
Wind Gust: 4.8km/h - -
Wind- - NNE
Pressure: 1035.1 hPa 1030 hPa -
Precipitation: 0.25 mm    
Historical Graphs
 
 
Tabular Data for January 23, 2021
Time Temperature Dew Point Pressure Wind Wind Speed Wind Gust Humidity Rainfall Rate (Hourly) solar
00:04 1.6 °C 0.8 °C 1035.1 hPa Calm     91% 0 mm 0 W/m2
00:09 1.5 °C 0.7 °C 1035.1 hPa Calm     91% 0 mm 0 W/m2
00:14 1.4 °C 0.7 °C 1035.1 hPa Calm     91% 0 mm 0 W/m2
00:19 1.4 °C 0.6 °C 1035.1 hPa Calm     91% 0 mm 0 W/m2
00:23 1.3 °C 0.6 °C 1035.1 hPa Calm     91% 0 mm 0 W/m2
00:29 1.2 °C 0.4 °C 1035.1 hPa Calm     91% 0 mm 0 W/m2
00:34 1.2 °C 0.3 °C 1035.1 hPa Calm     91% 0 mm 0 W/m2
00:39 1.1 °C 0.3 °C 1035.1 hPa Calm     91% 0 mm 0 W/m2
00:44 1.1 °C 0.3 °C 1035.1 hPa Calm     91% 0 mm 0 W/m2
00:49 1 °C 0.2 °C 1035.1 hPa Calm     91% 0 mm 0 W/m2
00:54 0.8 °C 0.1 °C 1035.1 hPa Calm     91% 0 mm 0 W/m2
00:59 0.7 °C -0.1 °C 1035.1 hPa Calm     91% 0 mm 0 W/m2
01:04 0.7 °C -0.1 °C 1035.1 hPa Calm     91% 0 mm 0 W/m2
01:09 0.7 °C -0.1 °C 1035.1 hPa Calm     91% 0 mm 0 W/m2
01:14 0.7 °C -0.1 °C 1035.1 hPa Calm     91.2% 0 mm 0 W/m2
01:19 0.7 °C -0.1 °C 1035.1 hPa Calm     92% 0 mm 0 W/m2
01:24 0.6 °C -0.1 °C 1035.1 hPa Calm     92% 0 mm 0 W/m2
01:29 0.6 °C -0.2 °C 1035.1 hPa Calm     91.2% 0 mm 0 W/m2
01:34 0.5 °C -0.2 °C 1035.1 hPa Calm     91.8% 0 mm 0 W/m2
01:39 0.4 °C -0.3 °C 1035.1 hPa Calm     92% 0 mm 0 W/m2
01:44 0.3 °C -0.3 °C 1034.8 hPa Calm     92% 0 mm 0 W/m2
01:49 0.3 °C -0.4 °C 1034.8 hPa Calm     92% 0 mm 0 W/m2
01:54 0.3 °C -0.4 °C 1034.8 hPa Calm     92% 0 mm 0 W/m2
01:59 0.2 °C -0.5 °C 1034.8 hPa Calm     92% 0 mm 0 W/m2
02:03 0.2 °C -0.4 °C 1034.8 hPa NNE 0.5 km/h 1.6 km/h 92% 0 mm 0 W/m2
02:09 0.4 °C -0.3 °C 1034.8 hPa Calm     92% 0 mm 0 W/m2
02:14 0.4 °C -0.3 °C 1034.8 hPa Calm     92% 0 mm 0 W/m2
02:19 0.4 °C -0.3 °C 1034.8 hPa Calm     92% 0 mm 0 W/m2
02:24 0.3 °C -0.4 °C 1034.8 hPa Calm     92% 0 mm 0 W/m2
02:29 0.3 °C -0.4 °C 1034.8 hPa Calm     92% 0 mm 0 W/m2
02:34 0.3 °C -0.3 °C 1034.8 hPa Calm     92% 0 mm 0 W/m2
02:39 0.2 °C -0.5 °C 1034.8 hPa Calm     92% 0 mm 0 W/m2
02:44 0.1 °C -0.5 °C 1034.8 hPa Calm     92% 0 mm 0 W/m2
02:49 -0.1 °C -0.7 °C 1034.4 hPa Calm     92% 0 mm 0 W/m2
02:54 -0.1 °C -0.7 °C 1034.4 hPa Calm     92% 0 mm 0 W/m2
02:59 -0.2 °C -0.7 °C 1034.4 hPa Calm     92% 0 mm 0 W/m2
03:04 -0.2 °C -0.8 °C 1034.4 hPa Calm     92% 0 mm 0 W/m2
03:09 -0.2 °C -0.8 °C 1034.4 hPa Calm     92% 0 mm 0 W/m2
03:14 -0.2 °C -0.7 °C 1034.4 hPa Calm     92.8% 0 mm 0 W/m2
03:19 -0.2 °C -0.7 °C 1034.4 hPa Calm     93% 0 mm 0 W/m2
03:24 -0.2 °C -0.8 °C 1034.4 hPa Calm     92.5% 0 mm 0 W/m2
03:29 -0.3 °C -0.9 °C 1034.4 hPa Calm     92% 0 mm 0 W/m2
03:34 -0.3 °C -0.9 °C 1034.4 hPa Calm     92% 0 mm 0 W/m2
03:39 -0.2 °C -0.7 °C 1034.4 hPa Calm     92.8% 0 mm 0 W/m2
03:44 -0.1 °C -0.6 °C 1034.4 hPa Calm     93% 0 mm 0 W/m2
03:49 0.1 °C -0.4 °C 1034.4 hPa Calm     93% 0 mm 0 W/m2
03:54 0.2 °C -0.3 °C 1034.4 hPa Calm     93% 0 mm 0 W/m2
03:59 0.2 °C -0.3 °C 1034.1 hPa Calm     93% 0 mm 0 W/m2
04:04 0 °C -0.5 °C 1034.1 hPa Calm     93% 0 mm 0 W/m2
04:09 -0.1 °C -0.6 °C 1034.1 hPa Calm     93% 0 mm 0 W/m2
04:14 -0.2 °C -0.7 °C 1034.1 hPa Calm     93% 0 mm 0 W/m2
04:19 -0.3 °C -0.8 °C 1034.1 hPa Calm     93% 0 mm 0 W/m2
04:24 -0.3 °C -0.8 °C 1034.1 hPa Calm     93% 0 mm 0 W/m2
04:29 -0.3 °C -0.8 °C 1034.1 hPa Calm     93% 0 mm 0 W/m2
04:33 -0.4 °C -0.9 °C 1034.1 hPa Calm     93% 0 mm 0 W/m2
04:39 -0.6 °C -1.1 °C 1034.1 hPa Calm     93% 0 mm 0 W/m2
04:44 -0.6 °C -1.1 °C 1034.1 hPa Calm     93% 0 mm 0 W/m2
04:49 -0.6 °C -1.1 °C 1034.1 hPa Calm     93% 0 mm 0 W/m2
04:54 -0.6 °C -1.1 °C 1034.1 hPa Calm     93% 0 mm 0 W/m2
04:59 -0.6 °C -1.1 °C 1034.1 hPa Calm     93% 0 mm 0 W/m2
05:04 -0.6 °C -1.1 °C 1034.1 hPa Calm     93% 0 mm 0 W/m2
05:09 -0.6 °C -1.1 °C 1034.1 hPa Calm     93% 0 mm 0 W/m2
05:14 -0.6 °C -1.1 °C 1034.1 hPa Calm     93% 0 mm 0 W/m2
05:19 -0.6 °C -1.1 °C 1034.1 hPa Calm     93% 0 mm 0 W/m2
05:24 -0.6 °C -1.1 °C 1034.1 hPa Calm     93% 0 mm 0 W/m2
05:29 -0.6 °C -1.1 °C 1034.1 hPa Calm     93% 0 mm 0 W/m2
05:34 -0.7 °C -1.2 °C 1034.1 hPa Calm     93% 0 mm 0 W/m2
05:39 -0.7 °C -1.2 °C 1034.1 hPa Calm     93% 0 mm 0 W/m2
05:44 -0.7 °C -1.2 °C 1034.1 hPa Calm     93% 0 mm 0 W/m2
05:49 -0.8 °C -1.3 °C 1034.1 hPa Calm     93% 0 mm 0 W/m2
05:54 -0.8 °C -1.3 °C 1034.1 hPa Calm     93% 0 mm 0 W/m2
05:59 -0.8 °C -1.3 °C 1034.1 hPa Calm     93% 0 mm 0 W/m2
06:04 -0.8 °C -1.3 °C 1034.1 hPa Calm     93% 0 mm 0 W/m2
06:09 -0.8 °C -1.3 °C 1034.1 hPa Calm     93% 0 mm 0 W/m2
06:14 -0.8 °C -1.3 °C 1034.1 hPa Calm     93% 0 mm 0 W/m2
06:19 -0.7 °C -1.2 °C 1034.1 hPa Calm     93% 0 mm 0 W/m2
06:24 -0.7 °C -1.2 °C 1034.1 hPa Calm     93% 0 mm 0 W/m2
06:29 -0.7 °C -1.2 °C 1034.1 hPa Calm     93% 0 mm 0 W/m2
06:34 -0.8 °C -1.3 °C 1034.1 hPa Calm     93% 0 mm 0 W/m2
06:39 -0.7 °C -1.2 °C 1034.1 hPa Calm     93% 0 mm 0 W/m2
06:44 -0.7 °C -1 °C 1034.1 hPa Calm     93.8% 0 mm 0 W/m2
06:49 -0.6 °C -0.8 °C 1034.1 hPa Calm     94% 0 mm 0 W/m2
06:54 -0.2 °C -0.7 °C 1034.1 hPa Calm     93.6% 0 mm 0 W/m2
06:59 -0.2 °C -0.6 °C 1034.1 hPa Calm     94% 0 mm 0 W/m2
07:04 -0.1 °C -0.5 °C 1034.1 hPa Calm     94% 0 mm 0 W/m2
07:09 0.3 °C -0.1 °C 1033.7 hPa Calm     94% 0 mm 0 W/m2
07:14 0.5 °C 0.1 °C 1033.7 hPa Calm     94% 0 mm 0 W/m2
07:19 0.3 °C -0.1 °C 1034.1 hPa Calm     94% 0 mm 0 W/m2
07:24 0.2 °C -0.2 °C 1034.1 hPa Calm     94% 0 mm 0 W/m2
07:29 0.1 °C -0.3 °C 1034.1 hPa Calm     94% 0 mm 0 W/m2
07:34 0.3 °C -0.1 °C 1034.1 hPa Calm     94% 0 mm 0 W/m2
07:39 0.2 °C -0.2 °C 1034.1 hPa Calm     94% 0 mm 0 W/m2
07:44 0 °C -0.4 °C 1034.1 hPa Calm     94% 0 mm 0 W/m2
07:49 -0.2 °C -0.6 °C 1034.4 hPa Calm     94% 0 mm 0 W/m2
07:54 -0.5 °C -0.8 °C 1034.4 hPa Calm     94% 0 mm 7 W/m2
07:59 -0.6 °C -0.9 °C 1034.4 hPa Calm     94% 0 mm 14 W/m2
08:04 -0.6 °C -0.9 °C 1034.4 hPa Calm     94% 0 mm 14 W/m2
08:09 -0.5 °C -0.8 °C 1034.4 hPa Calm     94% 0 mm 9 W/m2
08:14 -0.4 °C -0.8 °C 1034.8 hPa Calm     94% 0 mm 11 W/m2
08:19 -0.3 °C -0.7 °C 1034.8 hPa Calm     94% 0 mm 12 W/m2
08:24 -0.1 °C -0.5 °C 1034.8 hPa Calm     94% 0 mm 16 W/m2
08:29 0.1 °C -0.3 °C 1034.8 hPa Calm     94% 0 mm 19 W/m2
08:34 0.1 °C -0.3 °C 1034.8 hPa Calm     94% 0 mm 21 W/m2
08:39 0.2 °C -0.2 °C 1034.8 hPa Calm     94% 0 mm 23 W/m2
08:44 0.3 °C -0.2 °C 1034.8 hPa Calm     94% 0 mm 25 W/m2
08:49 0.2 °C -0.2 °C 1034.8 hPa Calm     94% 0 mm 25 W/m2
08:54 0.2 °C -0.2 °C 1034.8 hPa Calm     94% 0 mm 26 W/m2
08:59 0.2 °C -0.2 °C 1034.8 hPa Calm     94% 0 mm 28 W/m2
09:04 0.2 °C -0.2 °C 1034.8 hPa Calm     94% 0 mm 30 W/m2
09:09 0.2 °C -0.2 °C 1035.1 hPa Calm     94% 0 mm 33 W/m2
09:14 0.4 °C 0 °C 1034.8 hPa Calm     94% 0 mm 35 W/m2
09:19 0.6 °C 0.2 °C 1035.1 hPa Calm     94% 0 mm 39 W/m2
09:24 0.8 °C 0.3 °C 1035.1 hPa Calm     94% 0 mm 40 W/m2
09:29 0.8 °C 0.4 °C 1035.1 hPa Calm     94% 0 mm 46 W/m2
09:34 0.9 °C 0.6 °C 1034.8 hPa Calm     94% 0 mm 56 W/m2
09:39 1.1 °C 0.7 °C 1035.1 hPa Calm     94% 0 mm 58 W/m2
09:43 1.2 °C 0.8 °C 1034.8 hPa Calm     94% 0 mm 63 W/m2
09:49 1.3 °C 0.9 °C 1034.8 hPa Calm     94% 0 mm 60 W/m2
09:54 1.4 °C 1 °C 1035.1 hPa Calm     94% 0 mm 56 W/m2
09:59 1.4 °C 1.2 °C 1035.1 hPa Calm     94.8% 0 mm 58 W/m2
10:04 1.6 °C 1.3 °C 1035.1 hPa Calm     94.6% 0 mm 58 W/m2
10:09 1.7 °C 1.3 °C 1035.1 hPa Calm     94% 0 mm 60 W/m2
10:14 1.8 °C 1.6 °C 1035.1 hPa Calm     94.8% 0 mm 60 W/m2
10:19 2.1 °C 1.7 °C 1035.1 hPa Calm     94.4% 0 mm 67 W/m2
10:24 2.2 °C 1.9 °C 1035.1 hPa Calm     94.8% 0 mm 67 W/m2
10:29 2.2 °C 2.1 °C 1035.1 hPa Calm     95% 0 mm 72 W/m2
10:34 2.3 °C 2.1 °C 1035.1 hPa Calm     95% 0 mm 74 W/m2
10:39 2.4 °C 2.2 °C 1035.1 hPa Calm     95% 0 mm 67 W/m2
10:44 2.5 °C 2.3 °C 1034.8 hPa Calm     95% 0 mm 65 W/m2
10:49 2.6 °C 2.3 °C 1034.8 hPa Calm     94.8% 0 mm 65 W/m2
10:54 2.6 °C 2.4 °C 1034.8 hPa Calm     95% 0 mm 69 W/m2
10:59 2.6 °C 2.3 °C 1034.8 hPa Calm     94.4% 0 mm 72 W/m2
11:04 2.7 °C 2.6 °C 1034.8 hPa Calm     95% 0 mm 95 W/m2
11:09 2.8 °C 2.7 °C 1034.8 hPa Calm     95% 0 mm 95 W/m2
11:14 3 °C 2.8 °C 1034.4 hPa Calm     95% 0 mm 98 W/m2
11:19 3.1 °C 2.9 °C 1034.4 hPa Calm     95% 0 mm 91 W/m2
11:24 3.2 °C 3.1 °C 1034.4 hPa Calm     95% 0 mm 98 W/m2
11:29 3.3 °C 3.1 °C 1034.4 hPa Calm     95% 0 mm 105 W/m2
11:34 3.3 °C 3.2 °C 1034.4 hPa Calm     95% 0 mm 130 W/m2
11:39 3.6 °C 3.4 °C 1034.4 hPa Calm     95% 0 mm 134 W/m2
11:44 3.7 °C 3.5 °C 1034.1 hPa Calm     95% 0 mm 113 W/m2
11:49 3.8 °C 3.6 °C 1034.1 hPa Calm     95% 0 mm 116 W/m2
11:54 3.9 °C 3.7 °C 1034.1 hPa Calm     95% 0 mm 123 W/m2
11:59 4.2 °C 3.9 °C 1034.1 hPa Calm     95% 0 mm 135 W/m2
12:04 4.3 °C 4.1 °C 1034.1 hPa Calm     95% 0 mm 139 W/m2
12:09 4.6 °C 4.3 °C 1034.1 hPa Calm     95% 0 mm 123 W/m2
12:14 4.6 °C 4.3 °C 1033.7 hPa Calm     95% 0 mm 120 W/m2
12:19 4.7 °C 4.6 °C 1033.7 hPa Calm     95% 0 mm 120 W/m2
12:24 4.8 °C 4.7 °C 1033.7 hPa Calm     95% 0 mm 123 W/m2
12:29 4.9 °C 4.7 °C 1033.7 hPa Calm     95% 0 mm 128 W/m2
12:34 5.1 °C 4.7 °C 1033.7 hPa Calm     94.3% 0 mm 137 W/m2
12:39 5.2 °C 4.8 °C 1033.7 hPa Calm     94.4% 0 mm 148 W/m2
12:44 5.3 °C 5 °C 1033.7 hPa Calm     94.4% 0 mm 135 W/m2
12:49 5.4 °C 5.2 °C 1033.4 hPa Calm     94.6% 0 mm 121 W/m2
12:54 5.7 °C 5.3 °C 1033.4 hPa Calm     94.4% 0 mm 139 W/m2
12:59 5.8 °C 5.4 °C 1033.4 hPa Calm     94% 0 mm 195 W/m2
13:04 6 °C 5.6 °C 1033.4 hPa Calm     94% 0 mm 230 W/m2
13:09 6.2 °C 5.8 °C 1033.4 hPa Calm     94% 0 mm 176 W/m2
13:14 6.2 °C 5.7 °C 1033.4 hPa Calm     94% 0 mm 109 W/m2
13:19 6.1 °C 5.7 °C 1033.4 hPa Calm     94% 0 mm 77 W/m2
13:24 6.1 °C 5.6 °C 1033.1 hPa Calm     93.6% 0 mm 42 W/m2
13:29 6.1 °C 5.5 °C 1033.1 hPa Calm     93% 0 mm 35 W/m2
13:34 6.1 °C 5.5 °C 1033.1 hPa Calm     93% 0 mm 32 W/m2
13:39 6.1 °C 5.5 °C 1033.1 hPa Calm     93% 0 mm 25 W/m2
13:44 6.1 °C 5.5 °C 1033.1 hPa Calm     93% 0 mm 26 W/m2
13:49 6.2 °C 5.6 °C 1033.1 hPa Calm     93% 0 mm 33 W/m2
13:54 6.2 °C 5.7 °C 1033.1 hPa Calm     93% 0 mm 39 W/m2
13:59 6.3 °C 5.7 °C 1033.1 hPa Calm     92.4% 0 mm 49 W/m2
14:04 6.3 °C 5.7 °C 1033.1 hPa Calm     92% 0 mm 56 W/m2
14:09 6.4 °C 5.7 °C 1032.7 hPa Calm     92% 0 mm 53 W/m2
14:14 6.5 °C 5.8 °C 1032.7 hPa Calm     92% 0 mm 56 W/m2
14:19 6.6 °C 5.9 °C 1032.7 hPa Calm     92% 0 mm 40 W/m2
14:24 6.6 °C 5.9 °C 1032.7 hPa Calm     92% 0 mm 32 W/m2
14:29 6.7 °C 6 °C 1032.7 hPa Calm     92% 0 mm 39 W/m2
14:34 6.7 °C 6 °C 1032.7 hPa Calm     92% 0 mm 40 W/m2
14:39 6.8 °C 6.1 °C 1032.7 hPa Calm     92% 0 mm 37 W/m2
14:44 6.8 °C 6.1 °C 1032.7 hPa Calm     92% 0 mm 28 W/m2
14:49 6.8 °C 6.2 °C 1032.7 hPa Calm     92% 0 mm 25 W/m2
14:54 6.9 °C 6.2 °C 1032.7 hPa Calm     92% 0 mm 26 W/m2
14:59 6.9 °C 6.2 °C 1032.7 hPa Calm     92% 0 mm 25 W/m2
15:04 7 °C 6.3 °C 1032.7 hPa Calm     92% 0.25 mm 25 W/m2
15:09 7.1 °C 6.3 °C 1032.7 hPa Calm     92% 0.25 mm 25 W/m2
15:14 7.1 °C 6.4 °C 1032.7 hPa Calm     92% 0.25 mm 23 W/m2
15:19 7.2 °C 6.5 °C 1032.4 hPa Calm     92% 0.25 mm 18 W/m2
15:24 7.2 °C 6.4 °C 1032.4 hPa Calm     91.8% 0.25 mm 18 W/m2
15:29 7.2 °C 6.3 °C 1032.4 hPa Calm     91% 0.25 mm 12 W/m2
15:34 7.3 °C 6.4 °C 1032.4 hPa Calm     91% 0.25 mm 9 W/m2
15:39 7.3 °C 6.4 °C 1032.4 hPa Calm     91% 0.25 mm 7 W/m2
15:44 7.3 °C 6.4 °C 1032.4 hPa Calm     91% 0.25 mm 7 W/m2
15:49 7.4 °C 6.5 °C 1032.4 hPa Calm     91% 0.25 mm 5 W/m2
15:54 7.4 °C 6.5 °C 1032.4 hPa Calm     91% 0.25 mm 0 W/m2
15:59 7.5 °C 6.6 °C 1032.4 hPa Calm     91% 0.25 mm 0 W/m2
16:04 7.5 °C 6.6 °C 1032.4 hPa Calm   1.6 km/h 91% 0 mm 0 W/m2
16:09 7.6 °C 6.6 °C 1032.4 hPa Calm     90.4% 0 mm 0 W/m2
16:14 7.6 °C 6.6 °C 1032.4 hPa Calm   4.8 km/h 90% 0 mm 0 W/m2
16:19 7.6 °C 6.6 °C 1032.4 hPa Calm   4.8 km/h 90% 0 mm 0 W/m2
16:23 7.6 °C 6.6 °C 1032.4 hPa Calm     90% 0 mm 0 W/m2
16:29 7.6 °C 6.6 °C 1032.4 hPa Calm     90% 0 mm 0 W/m2
16:34 7.6 °C 6.6 °C 1032.4 hPa Calm     90% 0 mm 0 W/m2
16:39 7.6 °C 6.6 °C 1032.4 hPa Calm     90% 0 mm 0 W/m2
16:44 7.5 °C 6.3 °C 1032.4 hPa Calm     89% 0 mm 0 W/m2
16:49 7.5 °C 6.3 °C 1032.4 hPa Calm     89% 0 mm 0 W/m2
16:54 7.5 °C 6.3 °C 1032.1 hPa Calm     89% 0 mm 0 W/m2
16:59 7.5 °C 6.3 °C 1032.1 hPa Calm     89% 0 mm 0 W/m2
17:04 7.5 °C 6.3 °C 1032.1 hPa Calm     89% 0 mm 0 W/m2
17:09 7.5 °C 6.3 °C 1032.1 hPa Calm     89% 0 mm 0 W/m2
17:14 7.6 °C 6.4 °C 1032.4 hPa Calm     89% 0 mm 0 W/m2
17:19 7.6 °C 6.4 °C 1032.4 hPa Calm     89% 0 mm 0 W/m2
17:24 7.6 °C 6.4 °C 1032.1 hPa Calm     89% 0 mm 0 W/m2
17:29 7.5 °C 6.3 °C 1032.1 hPa Calm     89% 0 mm 0 W/m2
17:34 7.5 °C 6.3 °C 1032.1 hPa Calm     89% 0 mm 0 W/m2
17:39 7.5 °C 6.3 °C 1032.1 hPa Calm     89% 0 mm 0 W/m2
17:44 7.4 °C 6.2 °C 1032.1 hPa Calm     89% 0 mm 0 W/m2
17:49 7.4 °C 6.2 °C 1032.1 hPa Calm     89% 0 mm 0 W/m2
17:54 7.4 °C 6.2 °C 1032.1 hPa Calm     89% 0 mm 0 W/m2
17:59 7.4 °C 6.2 °C 1032.1 hPa Calm     89% 0 mm 0 W/m2
18:04 7.4 °C 6.2 °C 1032.1 hPa Calm     89% 0 mm 0 W/m2
18:09 7.3 °C 6.2 °C 1032.1 hPa Calm     89% 0 mm 0 W/m2
18:14 7.4 °C 6.2 °C 1032.1 hPa Calm     89% 0 mm 0 W/m2
18:19 7.3 °C 6.2 °C 1032.1 hPa Calm     89% 0 mm 0 W/m2
18:24 7.4 °C 6.2 °C 1032.1 hPa Calm     89.2% 0 mm 0 W/m2
18:29 7.4 °C 6.3 °C 1032.1 hPa Calm     89.6% 0 mm 0 W/m2
18:34 7.4 °C 6.3 °C 1031.7 hPa Calm     89.8% 0 mm 0 W/m2
18:39 7.4 °C 6.4 °C 1032.1 hPa Calm     90% 0 mm 0 W/m2
18:44 7.3 °C 6.3 °C 1032.1 hPa Calm     90% 0 mm 0 W/m2
18:49 7.4 °C 6.4 °C 1032.1 hPa Calm     90% 0 mm 0 W/m2
18:54 7.4 °C 6.4 °C 1031.7 hPa Calm     90% 0 mm 0 W/m2
18:59 7.3 °C 6.3 °C 1031.7 hPa Calm     90% 0 mm 0 W/m2
19:04 7.3 °C 6.3 °C 1031.7 hPa Calm     90% 0 mm 0 W/m2
19:09 7.3 °C 6.3 °C 1031.7 hPa Calm     90% 0 mm 0 W/m2
19:14 7.3 °C 6.3 °C 1031.7 hPa Calm     90% 0 mm 0 W/m2
19:19 7.3 °C 6.3 °C 1031.7 hPa Calm     90% 0 mm 0 W/m2
19:24 7.3 °C 6.3 °C 1031.7 hPa Calm     90% 0 mm 0 W/m2
19:29 7.4 °C 6.4 °C 1031.7 hPa Calm     90% 0 mm 0 W/m2
19:34 7.4 °C 6.4 °C 1031.7 hPa Calm     90% 0 mm 0 W/m2
19:39 7.4 °C 6.4 °C 1031.7 hPa Calm     90% 0 mm 0 W/m2
19:44 7.4 °C 6.4 °C 1031.7 hPa Calm     90% 0 mm 0 W/m2
19:49 7.4 °C 6.4 °C 1031.7 hPa Calm     90% 0 mm 0 W/m2
19:54 7.4 °C 6.4 °C 1031.7 hPa Calm     90% 0 mm 0 W/m2
19:59 7.4 °C 6.4 °C 1031.7 hPa Calm     90% 0 mm 0 W/m2
20:04 7.3 °C 6.3 °C 1031.7 hPa Calm     90% 0 mm 0 W/m2
20:09 7.3 °C 6.3 °C 1031.7 hPa Calm     90% 0 mm 0 W/m2
20:14 7.4 °C 6.4 °C 1031.7 hPa Calm     90% 0 mm 0 W/m2
20:19 7.3 °C 6.3 °C 1031.4 hPa Calm     90% 0 mm 0 W/m2
20:24 7.3 °C 6.3 °C 1031.4 hPa Calm     90% 0 mm 0 W/m2
20:29 7.3 °C 6.3 °C 1031.4 hPa Calm     90% 0 mm 0 W/m2
20:34 7.3 °C 6.3 °C 1031.4 hPa Calm     90% 0 mm 0 W/m2
20:39 7.3 °C 6.3 °C 1031.4 hPa Calm     90% 0 mm 0 W/m2
20:44 7.2 °C 6.2 °C 1031 hPa Calm     90% 0 mm 0 W/m2
20:49 7.2 °C 6.2 °C 1031.4 hPa Calm     90% 0 mm 0 W/m2
20:54 7.2 °C 6.2 °C 1031 hPa Calm     90% 0 mm 0 W/m2
20:59 7.2 °C 6.2 °C 1031 hPa Calm     90% 0 mm 0 W/m2
21:04 7.2 °C 6.2 °C 1031 hPa Calm     90% 0 mm 0 W/m2
21:09 7.2 °C 6.2 °C 1031 hPa Calm     90% 0 mm 0 W/m2
21:14 7.2 °C 6.2 °C 1031 hPa Calm     90% 0 mm 0 W/m2
21:19 7.2 °C 6.3 °C 1031 hPa Calm     90.8% 0 mm 0 W/m2
21:24 7.3 °C 6.4 °C 1031 hPa Calm     91% 0 mm 0 W/m2
21:29 7.3 °C 6.4 °C 1031 hPa Calm     90.8% 0 mm 0 W/m2
21:34 7.3 °C 6.3 °C 1031 hPa Calm     90.2% 0 mm 0 W/m2
21:39 7.3 °C 6.3 °C 1031 hPa Calm     90% 0 mm 0 W/m2
21:44 7.3 °C 6.3 °C 1031 hPa Calm     90% 0 mm 0 W/m2
21:49 7.3 °C 6.3 °C 1031 hPa Calm     90% 0 mm 0 W/m2
21:54 7.4 °C 6.4 °C 1031 hPa Calm     90% 0 mm 0 W/m2
21:59 7.3 °C 6.3 °C 1030.7 hPa Calm     90% 0 mm 0 W/m2
22:04 7.3 °C 6.3 °C 1030.7 hPa Calm     90% 0 mm 0 W/m2
22:09 7.3 °C 6.3 °C 1030.7 hPa Calm     90% 0 mm 0 W/m2
22:14 7.4 °C 6.4 °C 1030.7 hPa Calm     90% 0 mm 0 W/m2
22:19 7.3 °C 6.3 °C 1030.7 hPa Calm     90% 0 mm 0 W/m2
22:24 7.3 °C 6.3 °C 1030.4 hPa Calm     90% 0 mm 0 W/m2
22:29 7.3 °C 6.3 °C 1030.4 hPa Calm     90% 0 mm 0 W/m2
22:34 7.3 °C 6.3 °C 1030.4 hPa Calm     90% 0 mm 0 W/m2
22:39 7.3 °C 6.3 °C 1030.4 hPa Calm     90% 0 mm 0 W/m2
22:44 7.3 °C 6.3 °C 1030.4 hPa Calm     90% 0 mm 0 W/m2
22:49 7.3 °C 6.3 °C 1030.4 hPa Calm     90% 0 mm 0 W/m2
22:54 7.3 °C 6.3 °C 1030.4 hPa Calm     90% 0 mm 0 W/m2
22:59 7.3 °C 6.3 °C 1030.4 hPa Calm     90% 0 mm 0 W/m2
23:04 7.3 °C 6.3 °C 1030.4 hPa Calm     90% 0 mm 0 W/m2
23:09 7.4 °C 6.4 °C 1030.4 hPa Calm     90% 0 mm 0 W/m2
23:14 7.4 °C 6.4 °C 1030.4 hPa Calm     90% 0 mm 0 W/m2
23:19 7.3 °C 6.3 °C 1030.4 hPa Calm     90% 0 mm 0 W/m2
23:24 7.3 °C 6.3 °C 1030.4 hPa Calm     90% 0 mm 0 W/m2
23:29 7.3 °C 6.3 °C 1030.4 hPa Calm     90% 0 mm 0 W/m2
23:34 7.4 °C 6.4 °C 1030.4 hPa Calm     90% 0 mm 0 W/m2
23:39 7.3 °C 6.3 °C 1030 hPa Calm     90% 0 mm 0 W/m2
23:44 7.3 °C 6.3 °C 1030 hPa Calm     90% 0 mm 0 W/m2
23:49 7.3 °C 6.3 °C 1030 hPa Calm     90% 0 mm 0 W/m2
23:54 7.3 °C 6.3 °C 1030 hPa Calm     90% 0 mm 0 W/m2
23:59 7.3 °C 6.2 °C 1030 hPa Calm     89.4% 0 mm 0 W/m2
Bath Spa Weather
Compliments of Weather Underground - 2 mb